Time;durP1;ratioP1;P1;durP2;ratioP2;P2;SDS_P1;SDS_P2;PMS_P1;PMS_P2;Temp;Humidity;BMP_temperature;BMP_pressure;BME280_temperature;BME280_humidity;BME280_pressure;Samples;Min_cycle;Max_cycle;Signal;HPM_P1;HPM_P2
2020/12/15 00:01:20;;;;;;;8.93;6.20;;;5.10;83.00;;;;;;5028986;28;20052;-65
2020/12/15 00:03:47;;;;;;;8.70;5.83;;;5.00;83.00;;;;;;5031916;28;20037;-65
2020/12/15 00:06:12;;;;;;;6.88;5.47;;;5.00;83.00;;;;;;5029663;28;20026;-66
2020/12/15 00:08:38;;;;;;;7.45;5.43;;;4.90;82.90;;;;;;5032042;28;20120;-66
2020/12/15 00:11:03;;;;;;;7.43;5.60;;;4.90;83.00;;;;;;5032491;28;20029;-65
2020/12/15 00:13:29;;;;;;;8.18;5.70;;;4.80;83.10;;;;;;5032447;28;20025;-65
2020/12/15 00:15:54;;;;;;;8.80;5.85;;;4.80;83.30;;;;;;5031572;28;20044;-65
2020/12/15 00:18:20;;;;;;;8.55;5.45;;;4.80;83.50;;;;;;5032429;28;20025;-65
2020/12/15 00:20:45;;;;;;;7.95;5.80;;;4.80;83.70;;;;;;5029985;28;20164;-66
2020/12/15 00:23:11;;;;;;;8.05;5.97;;;4.90;83.70;;;;;;5031338;28;20037;-65
2020/12/15 00:25:37;;;;;;;8.35;5.60;;;4.90;83.60;;;;;;5030898;28;20077;-65
2020/12/15 00:28:02;;;;;;;8.43;5.50;;;5.00;83.40;;;;;;5028477;28;20143;-65
2020/12/15 00:30:28;;;;;;;7.35;5.35;;;5.00;83.30;;;;;;5028992;28;20217;-66
2020/12/15 00:32:54;;;;;;;8.93;5.95;;;5.00;83.30;;;;;;5031235;28;20036;-66
2020/12/15 00:35:20;;;;;;;8.40;5.65;;;5.00;83.10;;;;;;5031692;28;20034;-65
2020/12/15 00:37:45;;;;;;;9.05;5.55;;;5.00;83.20;;;;;;5029214;28;20180;-65
2020/12/15 00:40:11;;;;;;;10.20;5.25;;;5.10;83.40;;;;;;5030587;28;20029;-65
2020/12/15 00:42:36;;;;;;;13.15;7.00;;;5.10;83.30;;;;;;5031430;28;20038;-64
2020/12/15 00:45:03;;;;;;;11.13;6.63;;;5.10;83.20;;;;;;5031710;28;20025;-65
2020/12/15 00:47:28;;;;;;;9.95;5.90;;;5.10;83.10;;;;;;5012382;28;20124;-65
2020/12/15 00:49:54;;;;;;;10.10;5.72;;;5.20;82.90;;;;;;5024068;28;20155;-66
2020/12/15 00:52:25;;;;;;;10.95;6.60;;;5.10;83.00;;;;;;5030030;28;20072;-65
2020/12/15 00:54:50;;;;;;;11.57;6.50;;;5.10;83.00;;;;;;5030579;28;20022;-65
2020/12/15 00:57:17;;;;;;;12.00;6.55;;;5.10;83.10;;;;;;5032170;28;20038;-65
2020/12/15 00:59:43;;;;;;;14.23;6.93;;;5.10;83.00;;;;;;5031549;28;20036;-65
2020/12/15 01:02:09;;;;;;;9.40;6.28;;;5.10;83.00;;;;;;5030220;28;20026;-65
2020/12/15 01:04:34;;;;;;;9.20;6.13;;;5.00;83.10;;;;;;5026460;28;20018;-65
2020/12/15 01:07:00;;;;;;;9.75;6.63;;;5.00;83.10;;;;;;5030646;28;20057;-65
2020/12/15 01:09:25;;;;;;;17.08;7.25;;;5.00;83.10;;;;;;5029780;28;20395;-65
2020/12/15 01:11:51;;;;;;;11.65;7.32;;;4.90;82.90;;;;;;5025293;28;20071;-64
2020/12/15 01:14:17;;;;;;;10.40;7.10;;;4.90;83.00;;;;;;5030283;28;20021;-65
2020/12/15 01:16:42;;;;;;;11.45;7.10;;;4.90;83.20;;;;;;5030189;28;20509;-65
2020/12/15 01:19:08;;;;;;;11.55;7.32;;;4.90;83.30;;;;;;5029653;28;20042;-64
2020/12/15 01:21:33;;;;;;;11.13;7.03;;;4.90;83.20;;;;;;5012581;28;20036;-65
2020/12/15 01:23:59;;;;;;;11.82;7.75;;;4.80;83.20;;;;;;5029319;28;20057;-65
2020/12/15 01:26:24;;;;;;;10.40;7.20;;;4.80;83.40;;;;;;5031687;28;20036;-65
2020/12/15 01:28:50;;;;;;;12.25;7.60;;;4.70;83.50;;;;;;5029383;28;20033;-65
2020/12/15 01:31:23;;;;;;;15.57;7.53;;;4.70;83.60;;;;;;5030356;28;20417;-65
2020/12/15 01:33:48;;;;;;;11.55;7.43;;;4.70;83.70;;;;;;5031195;28;20382;-65
2020/12/15 01:36:14;;;;;;;13.38;7.43;;;4.70;83.70;;;;;;5030702;28;20029;-65
2020/12/15 01:38:41;;;;;;;12.35;7.82;;;4.80;83.80;;;;;;5029032;28;20037;-65
2020/12/15 01:41:07;;;;;;;13.55;7.90;;;4.80;83.80;;;;;;5029238;28;20025;-65
2020/12/15 01:43:32;;;;;;;13.02;7.60;;;4.80;83.70;;;;;;5029427;28;20409;-65
2020/12/15 01:45:58;;;;;;;14.00;8.32;;;4.90;83.60;;;;;;5030122;28;20061;-64
2020/12/15 01:48:23;;;;;;;11.93;6.65;;;4.90;83.50;;;;;;5027286;28;20124;-65
2020/12/15 01:50:49;;;;;;;13.13;6.88;;;4.90;83.40;;;;;;5013492;28;20530;-65
2020/12/15 01:53:15;;;;;;;12.70;7.70;;;4.90;83.30;;;;;;5030517;28;20034;-65
2020/12/15 01:55:41;;;;;;;12.00;7.35;;;4.80;83.40;;;;;;5029426;28;20449;-65
2020/12/15 01:58:08;;;;;;;11.20;7.13;;;4.80;83.60;;;;;;5031643;28;20025;-64
2020/12/15 02:00:33;;;;;;;12.32;6.85;;;4.80;83.70;;;;;;5030057;28;20394;-64
2020/12/15 02:02:59;;;;;;;12.65;7.45;;;4.90;83.80;;;;;;5028588;28;20029;-64
2020/12/15 02:05:24;;;;;;;10.95;6.28;;;4.90;83.70;;;;;;5027901;28;20029;-65
2020/12/15 02:07:51;;;;;;;11.18;6.90;;;4.90;83.60;;;;;;5028932;28;20091;-65
2020/12/15 02:10:17;;;;;;;11.48;6.18;;;4.90;83.50;;;;;;5029773;28;20104;-64
2020/12/15 02:12:43;;;;;;;9.75;6.50;;;4.90;83.60;;;;;;5029054;28;20144;-65
2020/12/15 02:15:09;;;;;;;9.18;5.78;;;4.90;83.70;;;;;;5029351;28;20104;-65
2020/12/15 02:17:34;;;;;;;10.07;6.15;;;4.90;83.70;;;;;;5028840;28;20463;-65
2020/12/15 02:20:10;;;;;;;10.45;6.22;;;4.90;83.70;;;;;;5030254;28;20109;-65
2020/12/15 02:22:36;;;;;;;10.85;5.65;;;4.90;83.70;;;;;;5028441;28;20136;-65
2020/12/15 02:25:08;;;;;;;9.48;5.63;;;5.00;83.60;;;;;;5030738;28;20133;-65
2020/12/15 02:27:34;;;;;;;8.88;5.80;;;5.00;83.50;;;;;;5025088;28;20017;-66
2020/12/15 02:29:59;;;;;;;8.38;5.60;;;5.00;83.50;;;;;;5026479;28;20428;-66
2020/12/15 02:32:25;;;;;;;6.38;4.90;;;5.00;83.60;;;;;;5026681;28;20056;-65
2020/12/15 02:34:56;;;;;;;8.73;5.25;;;5.00;83.60;;;;;;5028133;28;20025;-65
2020/12/15 02:37:21;;;;;;;10.43;5.70;;;5.00;83.50;;;;;;5023044;28;20025;-65
2020/12/15 02:39:47;;;;;;;7.97;5.38;;;5.00;83.60;;;;;;5025331;28;20086;-64
2020/12/15 02:42:13;;;;;;;7.55;4.97;;;4.90;83.70;;;;;;5028528;28;20494;-65
2020/12/15 02:44:38;;;;;;;8.98;5.13;;;5.00;83.80;;;;;;5030768;28;20051;-65
2020/12/15 02:47:04;;;;;;;8.95;5.55;;;5.00;83.80;;;;;;5027638;28;20052;-65
2020/12/15 02:49:29;;;;;;;7.50;5.47;;;5.00;83.50;;;;;;5034706;28;20394;-65
2020/12/15 02:51:55;;;;;;;7.10;5.20;;;5.00;83.40;;;;;;5034928;28;20592;-65
2020/12/15 02:54:20;;;;;;;8.75;5.55;;;5.10;83.60;;;;;;5033246;28;20397;-65
2020/12/15 02:56:46;;;;;;;6.95;4.93;;;5.10;83.60;;;;;;5034724;28;20021;-65
2020/12/15 02:59:12;;;;;;;7.07;4.90;;;5.10;83.50;;;;;;5034326;28;20567;-65
2020/12/15 03:01:41;;;;;;;6.40;4.72;;;5.20;83.50;;;;;;5035105;28;20120;-65
2020/12/15 03:04:08;;;;;;;8.95;4.63;;;5.20;83.40;;;;;;5034087;28;20072;-65
2020/12/15 03:06:34;;;;;;;6.43;4.88;;;5.10;83.30;;;;;;5033676;28;20053;-64
2020/12/15 03:09:00;;;;;;;7.18;5.38;;;5.10;83.50;;;;;;5033796;28;20057;-65
2020/12/15 03:11:26;;;;;;;8.23;5.28;;;5.10;83.80;;;;;;5033182;28;20062;-65
2020/12/15 03:13:52;;;;;;;7.78;5.32;;;5.10;83.80;;;;;;5033210;28;20036;-64
2020/12/15 03:16:18;;;;;;;6.32;4.85;;;5.10;83.80;;;;;;5034516;28;20037;-65
2020/12/15 03:18:43;;;;;;;6.72;5.22;;;5.20;83.80;;;;;;5034029;28;20020;-65
2020/12/15 03:21:09;;;;;;;7.15;4.63;;;5.20;83.60;;;;;;5033522;28;20375;-65
2020/12/15 03:23:35;;;;;;;7.60;4.63;;;5.30;83.60;;;;;;5033377;28;20029;-64
2020/12/15 03:26:00;;;;;;;6.25;4.68;;;5.30;83.60;;;;;;5032662;28;20045;-65
2020/12/15 03:28:26;;;;;;;6.95;5.30;;;5.30;83.40;;;;;;5034633;28;20033;-65
2020/12/15 03:30:52;;;;;;;5.82;4.60;;;5.30;83.30;;;;;;5034157;28;20040;-65
2020/12/15 03:33:18;;;;;;;6.97;4.90;;;5.20;83.30;;;;;;5034045;28;20028;-65
2020/12/15 03:35:44;;;;;;;6.57;4.78;;;5.20;83.70;;;;;;5033677;28;20030;-65
2020/12/15 03:38:10;;;;;;;7.72;4.68;;;5.20;83.80;;;;;;5033254;28;20018;-65
2020/12/15 03:40:36;;;;;;;6.78;4.78;;;5.20;83.70;;;;;;5032893;28;20029;-65
2020/12/15 03:43:02;;;;;;;5.20;4.10;;;5.20;83.80;;;;;;5033276;28;20461;-65
2020/12/15 03:45:31;;;;;;;6.07;4.55;;;5.30;83.80;;;;;;5033621;28;20037;-65
2020/12/15 03:47:58;;;;;;;7.10;4.47;;;5.30;83.70;;;;;;5034423;28;20021;-64
2020/12/15 03:50:24;;;;;;;6.47;4.70;;;5.30;83.60;;;;;;5032619;28;20042;-65
2020/12/15 03:52:49;;;;;;;8.00;5.22;;;5.30;83.40;;;;;;5031984;28;20056;-64
2020/12/15 03:55:15;;;;;;;8.73;4.75;;;5.30;83.60;;;;;;5033967;28;20517;-65
2020/12/15 03:57:41;;;;;;;7.60;5.00;;;5.30;83.50;;;;;;5033998;28;20026;-65
2020/12/15 04:00:07;;;;;;;7.15;4.95;;;5.30;83.60;;;;;;5030878;28;20042;-65
2020/12/15 04:02:32;;;;;;;6.13;4.20;;;5.30;83.50;;;;;;5031422;28;20037;-64
2020/12/15 04:04:58;;;;;;;6.75;4.30;;;5.30;83.70;;;;;;5030336;28;20092;-65
2020/12/15 04:07:24;;;;;;;6.20;4.55;;;5.20;83.50;;;;;;5031962;28;20049;-65
2020/12/15 04:09:49;;;;;;;5.93;4.38;;;5.20;83.60;;;;;;5029052;28;20025;-65
2020/12/15 04:12:15;;;;;;;8.32;5.75;;;5.10;83.70;;;;;;5032663;28;20029;-65
2020/12/15 04:14:41;;;;;;;8.35;5.78;;;5.00;83.90;;;;;;5032577;28;20026;-65
2020/12/15 04:17:08;;;;;;;10.07;6.75;;;5.10;84.20;;;;;;5031790;28;20080;-65
2020/12/15 04:19:35;;;;;;;9.07;5.82;;;5.10;84.10;;;;;;5014935;28;20025;-65
2020/12/15 04:22:00;;;;;;;8.20;5.53;;;5.10;84.10;;;;;;5031259;28;20593;-65
2020/12/15 04:24:26;;;;;;;8.25;5.05;;;5.20;84.20;;;;;;5032573;28;20109;-65
2020/12/15 04:26:52;;;;;;;7.72;4.97;;;5.30;84.10;;;;;;5033088;28;20030;-65
2020/12/15 04:29:17;;;;;;;7.53;4.78;;;5.30;83.90;;;;;;5032175;28;20482;-65
2020/12/15 04:31:43;;;;;;;7.13;4.65;;;5.30;83.80;;;;;;5027150;28;20072;-65
2020/12/15 04:34:08;;;;;;;5.97;4.65;;;5.30;83.70;;;;;;5015584;28;20029;-66
2020/12/15 04:36:34;;;;;;;7.20;4.80;;;5.20;84.00;;;;;;5014292;28;20446;-65
2020/12/15 04:38:59;;;;;;;7.03;4.30;;;5.20;84.10;;;;;;5032021;28;20095;-65
2020/12/15 04:41:25;;;;;;;9.32;5.03;;;5.20;84.10;;;;;;5032399;28;20033;-65
2020/12/15 04:43:52;;;;;;;6.30;4.60;;;5.20;83.90;;;;;;5032218;28;20046;-65
2020/12/15 04:46:22;;;;;;;5.07;4.10;;;5.20;84.10;;;;;;5031820;28;20033;-65
2020/12/15 04:49:05;;;;;;;8.52;4.85;;;5.20;84.10;;;;;;5031884;28;20026;-65
2020/12/15 04:52:04;;;;;;;6.55;5.22;;;5.20;84.20;;;;;;5032102;28;20140;-65
2020/12/15 04:54:32;;;;;;;7.80;4.60;;;5.20;84.30;;;;;;5016105;28;20037;-66
2020/12/15 04:57:00;;;;;;;5.90;4.43;;;5.10;84.20;;;;;;5033173;28;20045;-65
2020/12/15 04:59:32;;;;;;;7.57;5.28;;;5.10;84.30;;;;;;5031095;28;20037;-65
2020/12/15 05:02:02;;;;;;;7.95;6.13;;;5.10;84.50;;;;;;5032877;28;20485;-65
2020/12/15 05:04:31;;;;;;;8.10;5.72;;;5.10;84.70;;;;;;5030253;28;20334;-65
2020/12/15 05:06:57;;;;;;;12.52;8.05;;;5.20;84.70;;;;;;5030274;28;20030;-65
2020/12/15 05:09:28;;;;;;;14.98;8.25;;;5.10;84.50;;;;;;5031764;28;22241;-65
2020/12/15 05:11:53;;;;;;;13.15;7.50;;;5.10;84.30;;;;;;5031357;28;20040;-65
2020/12/15 05:14:19;;;;;;;12.05;6.97;;;5.00;84.40;;;;;;5030852;28;20462;-65
2020/12/15 05:16:45;;;;;;;10.50;6.75;;;5.00;84.50;;;;;;5032767;28;20135;-65
2020/12/15 05:19:10;;;;;;;9.93;6.53;;;5.10;84.60;;;;;;5031054;28;20030;-65
2020/12/15 05:21:36;;;;;;;10.40;7.00;;;5.00;84.60;;;;;;5031656;28;20125;-65
2020/12/15 05:24:08;;;;;;;9.75;6.45;;;5.10;84.80;;;;;;5031609;28;20087;-65
2020/12/15 05:26:34;;;;;;;8.73;6.32;;;5.10;84.90;;;;;;5032106;28;20045;-65
2020/12/15 05:29:07;;;;;;;10.70;7.20;;;5.20;84.80;;;;;;5031943;28;20108;-65
2020/12/15 05:31:38;;;;;;;12.65;6.60;;;5.30;84.80;;;;;;5030884;28;20065;-65
2020/12/15 05:34:04;;;;;;;10.98;6.85;;;5.30;84.60;;;;;;5032100;28;20068;-65
2020/12/15 05:36:30;;;;;;;10.68;5.82;;;5.40;84.40;;;;;;5029740;28;20479;-65
2020/12/15 05:39:07;;;;;;;10.57;6.43;;;5.30;84.30;;;;;;5032240;28;20033;-65
2020/12/15 05:41:33;;;;;;;9.15;6.47;;;5.30;84.30;;;;;;5031225;28;20029;-66
2020/12/15 05:44:00;;;;;;;11.45;6.10;;;5.20;84.20;;;;;;5026908;28;20030;-66
2020/12/15 05:46:28;;;;;;;10.73;6.80;;;5.10;84.20;;;;;;5011914;28;20486;-65
2020/12/15 05:49:04;;;;;;;10.35;6.25;;;5.10;84.40;;;;;;5031875;28;20029;-65
2020/12/15 05:51:41;;;;;;;10.65;6.53;;;5.00;84.50;;;;;;5030772;28;20485;-66
2020/12/15 05:54:11;;;;;;;10.70;6.93;;;4.90;84.70;;;;;;5028145;28;20037;-66
2020/12/15 05:56:38;;;;;;;12.55;7.75;;;4.90;84.90;;;;;;5031786;28;20088;-65
2020/12/15 05:59:18;;;;;;;13.30;8.02;;;4.90;85.10;;;;;;5030922;28;20025;-66
2020/12/15 06:01:49;;;;;;;10.88;7.40;;;4.90;85.20;;;;;;5032172;28;20024;-64
2020/12/15 06:04:16;;;;;;;9.07;6.60;;;5.10;85.20;;;;;;5031409;28;20447;-66
2020/12/15 06:06:42;;;;;;;10.75;6.60;;;5.10;85.00;;;;;;5031024;28;20046;-65
2020/12/15 06:09:10;;;;;;;9.77;6.38;;;5.20;84.90;;;;;;5031250;28;20025;-65
2020/12/15 06:11:39;;;;;;;9.57;6.25;;;5.30;84.80;;;;;;5029379;28;20069;-65
2020/12/15 06:14:04;;;;;;;12.07;7.30;;;5.30;84.70;;;;;;5013502;28;20025;-64
2020/12/15 06:16:30;;;;;;;10.23;6.50;;;5.40;84.60;;;;;;5031006;28;20482;-65
2020/12/15 06:18:56;;;;;;;10.18;6.80;;;5.40;84.40;;;;;;5031252;28;20045;-65
2020/12/15 06:21:22;;;;;;;12.30;6.40;;;5.40;84.50;;;;;;5013021;28;20025;-64
2020/12/15 06:23:58;;;;;;;8.57;6.25;;;5.40;84.50;;;;;;5030567;28;20034;-65
2020/12/15 06:26:25;;;;;;;9.70;6.45;;;5.50;84.50;;;;;;5028737;28;20025;-65
2020/12/15 06:29:05;;;;;;;7.93;5.53;;;5.50;84.40;;;;;;5033791;28;20569;-65
2020/12/15 06:31:32;;;;;;;10.10;6.05;;;5.60;84.30;;;;;;5032363;28;20033;-66
2020/12/15 06:34:01;;;;;;;8.93;5.75;;;5.60;84.20;;;;;;5034556;28;20485;-66
2020/12/15 06:36:29;;;;;;;8.40;5.57;;;5.50;84.00;;;;;;5034767;28;20041;-65
2020/12/15 06:38:56;;;;;;;10.05;6.03;;;5.50;84.00;;;;;;5035253;28;20465;-64
2020/12/15 06:41:23;;;;;;;9.45;5.70;;;5.40;84.10;;;;;;5034228;28;20044;-64
2020/12/15 06:43:49;;;;;;;9.95;6.22;;;5.30;84.20;;;;;;5034325;28;20032;-65
2020/12/15 06:46:15;;;;;;;12.02;6.38;;;5.30;84.30;;;;;;5033288;28;20041;-64
2020/12/15 06:48:45;;;;;;;10.68;5.72;;;5.20;84.40;;;;;;5035365;28;20456;-65
2020/12/15 06:51:12;;;;;;;12.43;7.22;;;5.20;84.60;;;;;;5028353;28;20382;-64
2020/12/15 06:53:39;;;;;;;12.57;6.78;;;5.20;84.80;;;;;;5043469;28;20090;-65
2020/12/15 06:56:05;;;;;;;13.02;7.13;;;5.20;85.00;;;;;;5026216;28;20022;-65
2020/12/15 06:58:31;;;;;;;14.13;7.05;;;5.20;85.00;;;;;;5031571;28;20041;-65
2020/12/15 07:01:03;;;;;;;9.05;6.03;;;5.30;84.90;;;;;;5034500;28;20033;-65
2020/12/15 07:03:44;;;;;;;9.00;5.57;;;5.30;84.80;;;;;;5034972;28;20029;-65
2020/12/15 07:06:14;;;;;;;7.13;4.72;;;5.40;84.80;;;;;;5034196;28;20022;-65
2020/12/15 07:08:40;;;;;;;7.53;4.97;;;5.40;84.60;;;;;;5035100;28;20021;-65
2020/12/15 07:11:05;;;;;;;8.20;5.22;;;5.40;84.60;;;;;;5033897;28;20060;-65
2020/12/15 07:13:31;;;;;;;5.55;4.30;;;5.50;84.60;;;;;;5016281;28;20478;-64
2020/12/15 07:15:56;;;;;;;5.82;4.38;;;5.40;84.50;;;;;;5031767;28;20373;-65
2020/12/15 07:18:22;;;;;;;7.05;4.75;;;5.40;84.50;;;;;;5034648;28;20488;-65
2020/12/15 07:20:49;;;;;;;8.20;5.03;;;5.40;84.60;;;;;;5032519;28;20036;-64
2020/12/15 07:23:17;;;;;;;7.10;5.10;;;5.40;84.80;;;;;;5041382;28;20033;-64
2020/12/15 07:25:43;;;;;;;7.15;4.82;;;5.40;84.80;;;;;;5046213;28;20368;-65
2020/12/15 07:28:09;;;;;;;6.10;4.60;;;5.50;84.70;;;;;;5033426;28;20111;-65
2020/12/15 07:30:38;;;;;;;7.03;4.97;;;5.50;84.60;;;;;;5032748;28;20021;-63
2020/12/15 07:33:03;;;;;;;7.63;5.10;;;5.50;84.70;;;;;;5033143;28;20033;-65
2020/12/15 07:35:30;;;;;;;6.63;4.60;;;5.50;84.80;;;;;;5033147;28;20025;-64
2020/12/15 07:37:56;;;;;;;7.80;5.13;;;5.60;84.80;;;;;;5016361;28;20035;-65
2020/12/15 07:40:28;;;;;;;9.32;4.85;;;5.70;84.80;;;;;;5034355;28;20021;-65
2020/12/15 07:42:58;;;;;;;6.70;4.77;;;5.70;84.50;;;;;;5034625;28;20095;-65
2020/12/15 07:45:24;;;;;;;9.13;5.05;;;5.70;84.50;;;;;;5015954;28;20342;-65
2020/12/15 07:47:51;;;;;;;8.20;4.90;;;5.80;84.60;;;;;;5034348;28;20074;-65
2020/12/15 07:50:21;;;;;;;7.20;4.95;;;5.80;84.60;;;;;;5033655;28;20022;-65
2020/12/15 07:52:47;;;;;;;9.43;4.50;;;5.90;84.50;;;;;;5034238;28;20029;-64
2020/12/15 07:55:14;;;;;;;9.52;4.60;;;6.00;84.40;;;;;;5033769;28;20131;-64
2020/12/15 07:57:42;;;;;;;8.15;5.13;;;6.00;84.40;;;;;;5034541;28;20026;-65
2020/12/15 08:00:17;;;;;;;16.23;8.70;;;6.10;84.30;;;;;;5033435;28;20382;-65
2020/12/15 08:02:44;;;;;;;10.77;7.07;;;6.10;84.20;;;;;;5033962;28;20017;-65
2020/12/15 08:05:21;;;;;;;12.63;6.70;;;6.20;84.00;;;;;;5033374;28;20022;-65
2020/12/15 08:07:58;;;;;;;9.10;5.35;;;6.20;83.90;;;;;;5033863;28;20040;-65
2020/12/15 08:10:32;;;;;;;8.23;5.35;;;6.20;83.90;;;;;;5033583;28;20044;-65
2020/12/15 08:13:01;;;;;;;10.50;5.95;;;6.20;83.90;;;;;;5033587;28;20014;-65
2020/12/15 08:15:28;;;;;;;9.90;5.82;;;6.20;84.00;;;;;;5016156;28;20492;-65
2020/12/15 08:17:54;;;;;;;11.23;6.47;;;6.20;84.20;;;;;;5034025;28;20129;-65
2020/12/15 08:20:28;;;;;;;8.75;6.43;;;6.20;84.20;;;;;;5033649;28;20581;-65
2020/12/15 08:23:03;;;;;;;9.85;6.15;;;6.20;84.10;;;;;;5033335;28;20124;-65
2020/12/15 08:25:29;;;;;;;10.07;5.35;;;6.30;84.20;;;;;;5033537;28;20086;-65
2020/12/15 08:28:11;;;;;;;9.93;5.40;;;6.30;84.10;;;;;;5033324;28;20041;-65
2020/12/15 08:30:37;;;;;;;9.57;5.53;;;6.40;84.10;;;;;;5033301;28;20027;-64
2020/12/15 08:33:03;;;;;;;7.68;4.88;;;6.40;84.00;;;;;;5033157;28;20128;-65
2020/12/15 08:35:28;;;;;;;9.48;4.97;;;6.40;83.90;;;;;;5033543;28;20057;-65
2020/12/15 08:37:57;;;;;;;7.95;5.07;;;6.40;83.90;;;;;;5033070;28;20026;-64
2020/12/15 08:40:23;;;;;;;8.07;4.63;;;6.40;83.90;;;;;;5033248;28;20466;-65
2020/12/15 08:42:51;;;;;;;8.15;5.18;;;6.50;83.90;;;;;;5033039;28;20061;-65
2020/12/15 08:45:17;;;;;;;6.72;4.45;;;6.60;83.80;;;;;;5032717;28;20060;-65
2020/12/15 08:47:47;;;;;;;8.73;4.78;;;6.70;83.70;;;;;;5032875;28;20029;-65
2020/12/15 08:50:15;;;;;;;6.35;4.35;;;6.70;83.50;;;;;;5032266;28;20084;-65
2020/12/15 08:52:41;;;;;;;6.45;4.03;;;6.70;83.50;;;;;;5014413;28;20385;-65
2020/12/15 08:55:07;;;;;;;8.02;4.68;;;6.60;83.50;;;;;;5032554;28;20465;-65
2020/12/15 08:57:33;;;;;;;6.65;4.50;;;6.60;83.60;;;;;;5032452;28;20033;-65
2020/12/15 09:00:14;;;;;;;7.05;4.72;;;6.60;83.80;;;;;;5033126;28;20481;-65
2020/12/15 09:02:40;;;;;;;9.63;5.00;;;6.60;84.00;;;;;;5032164;28;20033;-65
2020/12/15 09:05:07;;;;;;;8.32;5.00;;;6.60;84.00;;;;;;5029488;28;20501;-65
2020/12/15 09:07:33;;;;;;;9.13;5.10;;;6.70;83.90;;;;;;5014870;28;20025;-64
2020/12/15 09:10:12;;;;;;;11.68;4.93;;;6.70;83.70;;;;;;5032478;28;20042;-65
2020/12/15 09:12:37;;;;;;;8.65;4.93;;;6.80;83.80;;;;;;5032426;28;20028;-65
2020/12/15 09:15:04;;;;;;;7.72;5.10;;;6.80;83.70;;;;;;5033082;28;20030;-65
2020/12/15 09:17:30;;;;;;;8.32;4.93;;;6.90;83.80;;;;;;5022781;28;20351;-65
2020/12/15 09:19:55;;;;;;;6.95;5.05;;;6.90;83.60;;;;;;5032337;28;20041;-64
2020/12/15 09:22:21;;;;;;;6.78;4.55;;;7.00;84.10;;;;;;5032065;28;20025;-65
2020/12/15 09:24:47;;;;;;;6.85;5.10;;;6.90;83.60;;;;;;5032550;28;20121;-65
2020/12/15 09:27:21;;;;;;;9.05;4.95;;;7.00;83.50;;;;;;5032222;28;20030;-65
2020/12/15 09:29:47;;;;;;;10.05;5.30;;;7.10;83.50;;;;;;5031183;28;20034;-66
2020/12/15 09:32:13;;;;;;;12.80;7.55;;;7.10;83.40;;;;;;5030655;28;20083;-65
2020/12/15 09:34:38;;;;;;;17.85;10.13;;;7.20;83.40;;;;;;5032459;28;20128;-65
2020/12/15 09:37:04;;;;;;;31.48;17.83;;;7.20;83.20;;;;;;5032016;28;20030;-65
2020/12/15 09:39:30;;;;;;;30.00;13.63;;;7.20;83.30;;;;;;5031139;28;20063;-65
2020/12/15 09:41:57;;;;;;;11.68;6.28;;;7.20;83.20;;;;;;5014507;28;20501;-65
2020/12/15 09:44:23;;;;;;;13.43;7.57;;;7.20;82.90;;;;;;5032004;28;20025;-65
2020/12/15 09:46:49;;;;;;;13.23;6.97;;;7.20;82.90;;;;;;5032122;28;20113;-64
2020/12/15 09:49:14;;;;;;;10.48;6.70;;;7.20;82.80;;;;;;5032362;28;20021;-65
2020/12/15 09:51:41;;;;;;;9.93;6.18;;;7.20;82.90;;;;;;5031586;28;20075;-64
2020/12/15 09:54:07;;;;;;;8.98;5.38;;;7.20;82.90;;;;;;5032322;28;20025;-65
2020/12/15 09:56:33;;;;;;;10.95;6.40;;;7.10;82.80;;;;;;5031894;28;20071;-65
2020/12/15 09:58:58;;;;;;;8.27;5.70;;;7.20;83.10;;;;;;5034414;28;20037;-65
2020/12/15 10:01:25;;;;;;;7.25;5.32;;;7.20;83.00;;;;;;5035463;28;20482;-64
2020/12/15 10:03:50;;;;;;;9.25;5.47;;;7.20;82.80;;;;;;5035916;28;20025;-65
2020/12/15 10:06:16;;;;;;;9.43;5.30;;;7.20;82.70;;;;;;5035479;28;20029;-64
2020/12/15 10:08:42;;;;;;;7.78;5.03;;;7.10;82.60;;;;;;5036274;28;20101;-65
2020/12/15 10:11:13;;;;;;;8.23;5.43;;;7.10;82.60;;;;;;5035111;28;20029;-64
2020/12/15 10:13:39;;;;;;;6.80;4.60;;;7.10;82.70;;;;;;5036119;28;20018;-65
2020/12/15 10:16:04;;;;;;;7.25;4.72;;;7.10;82.80;;;;;;5035962;28;20117;-65
2020/12/15 10:18:30;;;;;;;9.52;4.82;;;7.10;82.90;;;;;;5033689;28;20034;-65
2020/12/15 10:20:55;;;;;;;9.82;5.10;;;7.10;82.90;;;;;;5016926;28;20109;-64
2020/12/15 10:23:21;;;;;;;7.82;4.75;;;7.10;82.90;;;;;;5015329;28;20072;-65
2020/12/15 10:25:46;;;;;;;15.65;8.23;;;7.10;82.90;;;;;;5015776;28;20073;-65
2020/12/15 10:28:12;;;;;;;12.10;7.45;;;7.20;82.60;;;;;;5015445;28;20025;-65
2020/12/15 10:30:38;;;;;;;10.93;6.25;;;7.20;82.40;;;;;;5014475;28;20017;-65
2020/12/15 10:33:03;;;;;;;7.95;5.38;;;7.30;82.30;;;;;;5014609;28;20117;-65
2020/12/15 10:35:29;;;;;;;8.23;5.40;;;7.30;82.30;;;;;;5015780;28;20053;-65
2020/12/15 10:37:54;;;;;;;8.00;5.43;;;7.30;82.50;;;;;;5008848;28;20038;-65
2020/12/15 10:40:20;;;;;;;9.63;5.25;;;7.40;82.50;;;;;;5034240;28;20055;-65
2020/12/15 10:42:45;;;;;;;8.27;5.32;;;7.50;82.30;;;;;;5034458;28;20140;-65
2020/12/15 10:45:11;;;;;;;9.77;5.32;;;7.60;82.10;;;;;;5035093;28;20477;-65
2020/12/15 10:47:36;;;;;;;7.78;5.07;;;7.70;82.10;;;;;;5034504;28;20025;-65
2020/12/15 10:50:03;;;;;;;7.85;5.20;;;7.70;82.10;;;;;;5034162;28;20021;-65
2020/12/15 10:52:28;;;;;;;12.20;5.93;;;7.70;82.30;;;;;;5033055;28;20100;-64
2020/12/15 10:54:54;;;;;;;10.30;6.10;;;7.80;82.30;;;;;;5034911;28;20468;-64
2020/12/15 10:57:19;;;;;;;7.95;5.93;;;7.80;82.30;;;;;;5034367;28;20103;-64
2020/12/15 10:59:45;;;;;;;10.35;5.38;;;7.90;82.30;;;;;;5034224;28;20080;-64
2020/12/15 11:02:12;;;;;;;8.63;5.13;;;8.00;82.30;;;;;;5026358;28;20100;-64
2020/12/15 11:04:37;;;;;;;10.80;4.82;;;8.10;82.20;;;;;;5029505;28;20045;-65
2020/12/15 11:07:03;;;;;;;7.65;4.47;;;8.10;82.10;;;;;;5034180;28;20030;-64
2020/12/15 11:09:28;;;;;;;7.75;4.82;;;8.20;82.00;;;;;;5014592;28;20414;-64
2020/12/15 11:11:54;;;;;;;8.40;4.68;;;8.30;81.80;;;;;;5034496;28;20044;-63
2020/12/15 11:14:20;;;;;;;7.45;4.30;;;8.40;81.90;;;;;;5032234;28;20075;-64
2020/12/15 11:16:46;;;;;;;6.60;4.22;;;8.40;81.80;;;;;;5034096;28;20525;-63
2020/12/15 11:19:11;;;;;;;7.32;4.32;;;8.50;81.70;;;;;;5032040;28;20026;-63
2020/12/15 11:21:37;;;;;;;13.60;4.63;;;8.50;81.60;;;;;;5014457;28;20036;-64
2020/12/15 11:24:02;;;;;;;8.52;6.32;;;8.60;81.60;;;;;;5018307;28;20076;-63
2020/12/15 11:26:28;;;;;;;8.88;5.68;;;8.70;81.40;;;;;;5019717;28;20045;-64
2020/12/15 11:28:54;;;;;;;11.88;6.65;;;8.70;81.40;;;;;;5034894;28;20389;-63
2020/12/15 11:31:19;;;;;;;10.10;5.57;;;8.80;81.50;;;;;;5033426;28;20021;-64
2020/12/15 11:33:46;;;;;;;12.43;7.32;;;8.80;81.30;;;;;;5037398;28;20021;-63
2020/12/15 11:36:13;;;;;;;14.98;7.38;;;8.90;81.20;;;;;;5054364;28;20550;-64
2020/12/15 11:38:43;;;;;;;9.30;6.50;;;8.90;81.00;;;;;;5052637;28;20029;-64
2020/12/15 11:41:08;;;;;;;10.90;7.05;;;8.90;81.10;;;;;;5033875;28;20087;-63
2020/12/15 11:43:34;;;;;;;14.23;6.65;;;8.90;80.80;;;;;;5033578;28;20482;-64
2020/12/15 11:45:59;;;;;;;12.18;6.35;;;8.90;80.70;;;;;;5034339;28;20051;-63
2020/12/15 11:48:25;;;;;;;9.95;6.13;;;9.00;80.90;;;;;;5034010;28;20049;-64
2020/12/15 11:50:51;;;;;;;13.50;6.22;;;9.00;81.00;;;;;;5033860;28;20060;-63
2020/12/15 11:53:16;;;;;;;8.45;5.95;;;9.10;81.00;;;;;;5033579;28;20056;-63
2020/12/15 11:55:42;;;;;;;14.80;6.93;;;9.10;80.90;;;;;;5033948;28;20044;-64
2020/12/15 11:58:07;;;;;;;9.15;5.53;;;9.20;80.80;;;;;;5033706;28;20033;-64
2020/12/15 12:00:33;;;;;;;11.80;6.38;;;9.20;80.80;;;;;;5033838;28;20547;-63
2020/12/15 12:02:58;;;;;;;8.85;5.78;;;9.30;80.80;;;;;;5033115;28;20041;-64
2020/12/15 12:05:24;;;;;;;9.70;5.32;;;9.40;80.30;;;;;;5033774;28;20482;-64
2020/12/15 12:07:49;;;;;;;13.10;6.00;;;9.40;80.50;;;;;;5033158;28;20026;-64
2020/12/15 12:10:15;;;;;;;11.88;5.80;;;9.40;80.30;;;;;;5029719;28;20021;-64
2020/12/15 12:12:42;;;;;;;10.57;5.97;;;9.40;80.30;;;;;;5024079;28;20136;-64
2020/12/15 12:15:07;;;;;;;11.43;5.32;;;9.40;80.10;;;;;;5034028;28;20026;-64
2020/12/15 12:17:33;;;;;;;8.30;5.60;;;9.40;80.00;;;;;;5033026;28;20108;-64
2020/12/15 12:19:58;;;;;;;10.65;6.13;;;9.40;80.30;;;;;;5032779;28;20022;-65
2020/12/15 12:22:24;;;;;;;10.30;6.05;;;9.40;79.80;;;;;;5032934;28;20049;-64
2020/12/15 12:24:50;;;;;;;8.32;5.15;;;9.40;79.60;;;;;;5033773;28;20029;-64
2020/12/15 12:27:15;;;;;;;8.05;5.18;;;9.40;79.70;;;;;;5033112;28;20042;-64
2020/12/15 12:29:41;;;;;;;8.13;5.68;;;9.40;79.90;;;;;;5032057;28;20034;-64
2020/12/15 12:32:07;;;;;;;8.07;5.63;;;9.40;80.00;;;;;;5033342;28;20436;-64
2020/12/15 12:34:33;;;;;;;6.95;5.60;;;9.40;80.10;;;;;;5033820;28;20025;-64
2020/12/15 12:36:59;;;;;;;9.70;5.72;;;9.30;80.10;;;;;;5032586;28;20060;-64
2020/12/15 12:39:25;;;;;;;7.15;4.95;;;9.40;80.10;;;;;;5032754;28;20533;-64
2020/12/15 12:41:52;;;;;;;8.50;4.88;;;9.40;80.30;;;;;;5033368;28;20435;-64
2020/12/15 12:44:19;;;;;;;8.00;5.57;;;9.40;80.40;;;;;;5014862;28;20462;-64
2020/12/15 12:46:48;;;;;;;9.32;5.50;;;9.40;80.10;;;;;;5013550;28;20056;-64
2020/12/15 12:49:14;;;;;;;10.80;6.88;;;9.40;80.10;;;;;;5032976;28;20021;-65
2020/12/15 12:51:39;;;;;;;9.68;5.22;;;9.40;80.10;;;;;;5033123;28;20474;-64